createdAt,value
2019-05-23T00:04:42.655Z,12.9
2019-05-23T00:09:47.707Z,12.8
2019-05-23T00:14:52.657Z,12.9
2019-05-23T00:19:57.731Z,12.9
2019-05-23T00:25:02.659Z,12.8
2019-05-23T00:30:12.666Z,12.8
2019-05-23T00:35:22.697Z,12.7
2019-05-23T00:45:22.893Z,12.6
2019-05-23T00:50:27.958Z,12.7
2019-05-23T00:55:32.931Z,12.7
2019-05-23T01:00:42.941Z,12.6
2019-05-23T01:05:52.919Z,12.5
2019-05-23T01:10:57.900Z,12.5
2019-05-23T01:16:02.900Z,12.5
2019-05-23T01:21:07.901Z,12.4
2019-05-23T01:26:12.894Z,12.2
2019-05-23T01:31:23.082Z,12.1
2019-05-23T01:36:32.922Z,12.2
2019-05-23T01:41:37.937Z,12
2019-05-23T01:46:42.953Z,12
2019-05-23T01:51:47.895Z,11.9
2019-05-23T02:01:48.013Z,11.6
2019-05-23T02:06:53.026Z,11.6
2019-05-23T02:11:58.070Z,11.5
2019-05-23T02:17:08.002Z,11.6
2019-05-23T02:22:18.011Z,11.5
2019-05-23T02:27:23.076Z,11.6
2019-05-23T02:32:28.018Z,11.4
2019-05-23T02:37:33.030Z,11.5
2019-05-23T02:42:38.037Z,11.5
2019-05-23T02:47:57.993Z,11.8
2019-05-23T02:53:13.048Z,11.8
2019-05-23T02:58:23.010Z,11.6
2019-05-23T03:03:33.069Z,11.6
2019-05-23T03:08:38.028Z,11.4
2019-05-23T03:13:42.983Z,11.2
2019-05-23T03:18:48.024Z,11.1
2019-05-23T03:23:52.977Z,10.9
2019-05-23T03:29:02.986Z,10.8
2019-05-23T03:34:13.209Z,11
2019-05-23T03:39:18.032Z,11.1
2019-05-23T03:44:22.992Z,11.2
2019-05-23T03:49:28.006Z,11.3
2019-05-23T03:54:32.952Z,11
2019-05-23T03:59:42.963Z,10.9
2019-05-23T04:04:52.967Z,10.9
2019-05-23T04:09:57.949Z,10.8
2019-05-23T04:15:02.965Z,10.8
2019-05-23T04:20:07.944Z,10.8
2019-05-23T04:25:12.928Z,10.6
2019-05-23T04:30:22.951Z,10.5
2019-05-23T04:35:32.953Z,11.9
2019-05-23T04:40:37.941Z,13.1
2019-05-23T04:45:42.945Z,13.8
2019-05-23T04:50:47.963Z,13.9
2019-05-23T04:55:52.960Z,14.5
2019-05-23T05:01:02.941Z,15
2019-05-23T05:06:12.964Z,15.2
2019-05-23T05:11:17.966Z,15.6
2019-05-23T05:16:22.972Z,16.1
2019-05-23T05:21:27.912Z,16.5
2019-05-23T05:31:28.131Z,16.8
2019-05-23T05:36:33.321Z,17.2
2019-05-23T05:41:38.087Z,17.4
2019-05-23T05:46:48.111Z,17.8
2019-05-23T05:51:58.180Z,17.7
2019-05-23T05:57:03.285Z,17.5
2019-05-23T06:02:09.001Z,17.7
2019-05-23T06:07:13.092Z,17.7
2019-05-23T06:12:18.059Z,17.8
2019-05-23T06:17:28.066Z,17.9
2019-05-23T06:22:38.120Z,18.1
2019-05-23T06:27:43.114Z,17.9
2019-05-23T06:32:48.077Z,18.5
2019-05-23T06:37:53.178Z,18.1
2019-05-23T06:42:58.133Z,18.6
2019-05-23T06:48:08.076Z,18.5
2019-05-23T06:53:18.087Z,18.5
2019-05-23T06:58:23.699Z,18.6
2019-05-23T07:03:41.060Z,18.5
2019-05-23T07:04:39.372Z,18.5
2019-05-23T07:08:33.516Z,18.5
2019-05-23T07:13:38.175Z,19.5
2019-05-23T07:18:43.027Z,18.5
2019-05-23T07:23:53.083Z,19
2019-05-23T07:29:03.009Z,18.6
2019-05-23T07:34:08.170Z,18.6
2019-05-23T07:39:13.311Z,19.5
2019-05-23T07:44:18.075Z,18.6
2019-05-23T07:49:22.992Z,19.8
2019-05-23T07:54:33.102Z,19.9
2019-05-23T08:04:38.276Z,20
2019-05-23T08:09:43.274Z,19.3
2019-05-23T08:19:49.448Z,19.2
2019-05-23T08:24:51.033Z,19.5
2019-05-23T08:29:53.679Z,18.9
2019-05-23T08:35:03.616Z,19.6
2019-05-23T08:40:13.494Z,19.5
2019-05-23T08:45:18.470Z,19.9
2019-05-23T08:50:23.688Z,20.2
2019-05-23T08:55:28.538Z,20.1
2019-05-23T09:00:33.504Z,19.4
2019-05-23T09:05:53.466Z,19.8
2019-05-23T09:11:08.512Z,19.6
2019-05-23T09:16:18.493Z,19.8
2019-05-23T09:21:28.536Z,19.2
2019-05-23T09:26:33.443Z,19.1
2019-05-23T09:31:38.468Z,19
2019-05-23T09:36:43.484Z,19.5
2019-05-23T09:41:48.452Z,19.6
2019-05-23T09:46:58.388Z,18.8
2019-05-23T09:52:09.341Z,19.6
2019-05-23T09:57:13.541Z,20.2
2019-05-23T10:02:18.505Z,19.8
2019-05-23T10:07:23.414Z,19.9
2019-05-23T10:12:28.488Z,20.1
2019-05-23T10:22:28.620Z,20.2
2019-05-23T10:27:33.652Z,20.2
2019-05-23T10:32:38.689Z,20.4
2019-05-23T10:37:48.625Z,20.4
2019-05-23T10:42:58.698Z,19.8
2019-05-23T10:48:03.658Z,20.4
2019-05-23T10:53:08.948Z,20.3
2019-05-23T10:58:13.632Z,19.8
2019-05-23T11:03:18.913Z,19.1
2019-05-23T11:08:30.316Z,19.8
2019-05-23T11:13:38.728Z,20.4
2019-05-23T11:18:43.731Z,21
2019-05-23T11:23:48.659Z,20.7
2019-05-23T11:28:53.634Z,19.9
2019-05-23T11:33:58.620Z,19
2019-05-23T11:39:08.702Z,19.5
2019-05-23T11:44:18.619Z,19.9
2019-05-23T11:49:23.608Z,20.6
2019-05-23T11:54:28.624Z,20.6
2019-05-23T11:59:33.828Z,20.5
2019-05-23T12:04:38.629Z,20.6
2019-05-23T12:09:58.751Z,20.8
2019-05-23T12:15:13.743Z,20.5
2019-05-23T12:20:23.680Z,20.1
2019-05-23T12:25:33.611Z,19.9
2019-05-23T12:30:38.604Z,20.2
2019-05-23T12:35:43.652Z,20
2019-05-23T12:45:43.809Z,19.2
2019-05-23T12:50:53.301Z,19.7
2019-05-23T12:55:53.801Z,20.3
2019-05-23T13:01:03.904Z,19.8
2019-05-23T13:06:13.773Z,19.8
2019-05-23T13:11:18.864Z,19.1
2019-05-23T13:16:23.766Z,19.5
2019-05-23T13:21:28.774Z,19.8
2019-05-23T13:31:28.927Z,20.5
2019-05-23T13:41:29.166Z,20.4
2019-05-23T13:46:34.285Z,20.3
2019-05-23T13:51:39.272Z,20.4
2019-05-23T13:56:49.243Z,20.3
2019-05-23T14:01:59.529Z,20.9
2019-05-23T14:07:04.259Z,20.6
2019-05-23T14:12:24.720Z,20.5
2019-05-23T14:13:26.112Z,20.5
2019-05-23T14:17:14.367Z,20.9
2019-05-23T14:22:19.250Z,20.8
2019-05-23T14:27:29.220Z,21.7
2019-05-23T14:32:39.209Z,21.6
2019-05-23T14:37:44.278Z,21.8
2019-05-23T14:42:52.790Z,21.8
2019-05-23T14:47:54.267Z,21.2
2019-05-23T14:52:59.184Z,20.8
2019-05-23T14:58:09.238Z,20.6
2019-05-23T15:03:19.237Z,20.5
2019-05-23T15:08:24.247Z,20.1
2019-05-23T15:13:29.222Z,20.1
2019-05-23T15:18:34.181Z,20.1
2019-05-23T15:23:39.255Z,20.9
2019-05-23T15:28:59.263Z,20.7
2019-05-23T15:34:14.212Z,20.6
2019-05-23T15:39:24.211Z,20.4
2019-05-23T15:44:34.200Z,20.3
2019-05-23T15:49:39.177Z,20.4
2019-05-23T15:54:44.282Z,20.3
2019-05-23T15:59:49.546Z,20.3
2019-05-23T16:04:54.185Z,19.9
2019-05-23T16:10:04.177Z,20.1
2019-05-23T16:15:14.192Z,20.2
2019-05-23T16:20:19.226Z,20.3
2019-05-23T16:25:24.197Z,20.6
2019-05-23T16:30:29.166Z,20.5
2019-05-23T16:35:34.157Z,20.7
2019-05-23T16:40:44.189Z,20.5
2019-05-23T16:45:54.190Z,20.1
2019-05-23T16:50:59.265Z,20.4
2019-05-23T16:56:04.147Z,20.6
2019-05-23T17:01:23.267Z,20.3
2019-05-23T17:02:20.493Z,20.3
2019-05-23T17:11:09.432Z,20.2
2019-05-23T17:16:14.372Z,20
2019-05-23T17:26:14.458Z,20.2
2019-05-23T17:31:19.654Z,20.5
2019-05-23T17:36:24.615Z,20.4
2019-05-23T17:41:34.537Z,20
2019-05-23T17:51:39.730Z,19.8
2019-05-23T17:56:44.826Z,19.6
2019-05-23T18:06:45.194Z,19.4
2019-05-23T18:11:50.202Z,19.4
2019-05-23T18:16:55.028Z,19.5
2019-05-23T18:22:04.974Z,19.4
2019-05-23T18:27:15.098Z,19.2
2019-05-23T18:32:20.005Z,19.2
2019-05-23T18:37:24.991Z,19.2
2019-05-23T18:42:29.993Z,19.2
2019-05-23T18:47:34.969Z,18.9
2019-05-23T18:52:44.951Z,18.8
2019-05-23T18:57:54.963Z,18.8
2019-05-23T19:03:00.134Z,18.8
2019-05-23T19:08:04.990Z,18.8
2019-05-23T19:13:10.000Z,18.6
2019-05-23T19:18:15.093Z,18.6
2019-05-23T19:23:24.972Z,18.6
2019-05-23T19:28:34.967Z,18.6
2019-05-23T19:33:39.970Z,18.5
2019-05-23T19:38:44.970Z,18.5
2019-05-23T19:43:49.990Z,18.4
2019-05-23T19:48:55.041Z,18.3
2019-05-23T19:53:59.918Z,18.2
2019-05-23T19:59:04.963Z,18.1
2019-05-23T20:09:05.159Z,17.9
2019-05-23T20:19:06.680Z,18.1
2019-05-23T20:24:10.427Z,18
2019-05-23T20:29:15.449Z,18.1
2019-05-23T20:34:25.407Z,18.2
2019-05-23T20:39:35.417Z,18.2
2019-05-23T20:44:40.407Z,18.1
2019-05-23T20:49:45.424Z,17.9
2019-05-23T20:54:51.455Z,17.8
2019-05-23T20:59:55.404Z,17.6
2019-05-23T21:05:05.380Z,17.6
2019-05-23T21:10:15.436Z,17.6
2019-05-23T21:15:20.370Z,17.5
2019-05-23T21:20:25.433Z,17.1
2019-05-23T21:25:30.378Z,17.1
2019-05-23T21:30:35.435Z,17
2019-05-23T21:35:45.373Z,16.9
2019-05-23T21:40:55.444Z,16.9
2019-05-23T21:46:00.410Z,16.8
2019-05-23T21:51:05.594Z,16.8
2019-05-23T21:56:10.391Z,16.5
2019-05-23T22:01:15.347Z,16.5
2019-05-23T22:06:35.354Z,16.2
2019-05-23T22:11:50.395Z,16.3
2019-05-23T22:17:00.361Z,16.1
2019-05-23T22:22:10.393Z,16.1
2019-05-23T22:27:15.323Z,15.9
2019-05-23T22:32:20.305Z,15.9
2019-05-23T22:37:25.377Z,15.7
2019-05-23T22:42:30.355Z,15.8
2019-05-23T22:47:40.337Z,15.9
2019-05-23T22:52:50.343Z,16
2019-05-23T22:57:55.320Z,15.7
2019-05-23T23:03:00.410Z,15.6
2019-05-23T23:08:05.325Z,15.7
2019-05-23T23:13:10.304Z,15.9
2019-05-23T23:18:20.326Z,16.2
2019-05-23T23:23:30.360Z,16.3
2019-05-23T23:28:35.316Z,16.4
2019-05-23T23:33:40.335Z,16.2
2019-05-23T23:38:45.302Z,16.8
2019-05-23T23:48:45.714Z,16
2019-05-23T23:53:51.081Z,15.9
